Time;durP1;ratioP1;P1;durP2;ratioP2;P2;SDS_P1;SDS_P2;PMS_P1;PMS_P2;Temp;Humidity;BMP_temperature;BMP_pressure;BME280_temperature;BME280_humidity;BME280_pressure;Samples;Min_cycle;Max_cycle;Signal;HPM_P1;HPM_P2
2023/05/25 00:00:27;;;;;;;14.90;8.33;;;;;;;18.56;90.08;99928.38;1748937;82;21285;-81
2023/05/25 00:03:39;;;;;;;21.65;8.63;;;;;;;18.70;89.38;99927.66;1749430;82;21302;-82
2023/05/25 00:06:44;;;;;;;16.48;8.43;;;;;;;18.50;90.42;99933.50;1750210;82;21863;-83
2023/05/25 00:09:50;;;;;;;18.40;9.03;;;;;;;18.38;90.79;99941.76;1749906;82;21266;-82
2023/05/25 00:12:57;;;;;;;16.37;8.15;;;;;;;18.48;90.79;99943.11;1749733;82;21330;-81
2023/05/25 00:16:02;;;;;;;16.20;8.95;;;;;;;18.32;91.50;99940.48;1749898;82;21318;-83
2023/05/25 00:19:11;;;;;;;16.50;8.88;;;;;;;18.53;90.55;99944.62;1749544;82;21306;-81
2023/05/25 00:22:03;;;;;;;17.20;9.15;;;;;;;18.54;90.53;99940.25;1748501;82;21820;-81
2023/05/25 00:25:11;;;;;;;19.90;9.88;;;;;;;18.23;90.85;99926.67;1749292;82;21838;-83
2023/05/25 00:28:18;;;;;;;23.25;9.85;;;;;;;18.01;92.82;99930.49;1755889;79;21891;-81
2023/05/25 00:31:24;;;;;;;14.70;9.08;;;;;;;17.95;93.81;99931.44;1757064;81;21918;-81
2023/05/25 00:34:32;;;;;;;15.30;8.83;;;;;;;18.13;92.73;99925.32;1756165;81;21315;-81
2023/05/25 00:37:38;;;;;;;20.05;8.50;;;;;;;18.35;90.99;99924.25;1757261;81;21323;-82
2023/05/25 00:40:37;;;;;;;16.05;9.35;;;;;;;18.35;90.17;99923.41;1757031;81;21267;-81
2023/05/25 00:43:45;;;;;;;22.62;10.85;;;;;;;18.24;90.29;99918.67;1757019;81;21306;-81
2023/05/25 00:46:55;;;;;;;13.75;9.03;;;;;;;18.48;90.16;99916.26;1757336;81;21278;-81
2023/05/25 00:50:00;;;;;;;;;;;;;;;18.44;89.37;99907.28;1758945;81;21867;-81
2023/05/25 00:53:05;;;;;;;14.93;8.08;;;;;;;18.48;89.26;99914.88;1725635;83;20681;-81
2023/05/25 00:56:15;;;;;;;19.45;8.58;;;;;;;18.58;89.53;99919.83;1726123;82;21318;-81
2023/05/25 00:59:23;;;;;;;;;;;;;;;18.77;88.01;99913.69;1729188;83;21872;-81
2023/05/25 01:02:30;;;;;;;18.37;7.55;;;;;;;18.45;88.79;99912.59;1725746;83;20679;-81
2023/05/25 01:05:37;;;;;;;16.32;8.78;;;;;;;18.60;88.27;99908.83;1725867;83;21350;-81
2023/05/25 01:08:44;;;;;;;16.02;8.83;;;;;;;18.42;88.58;99913.61;1726895;83;21337;-81
2023/05/25 01:11:53;;;;;;;18.25;8.88;;;;;;;18.54;88.31;99913.95;1725716;83;21323;-81
2023/05/25 01:14:52;;;;;;;18.92;9.00;;;;;;;18.33;89.04;99914.48;1733454;82;21811;-81
2023/05/25 01:17:58;;;;;;;16.57;8.28;;;;;;;18.30;89.15;99913.56;1727279;83;21287;-82
2023/05/25 01:21:28;;;;;;;15.05;8.63;;;;;;;18.10;89.58;99910.55;1713387;83;21314;-81
2023/05/25 01:24:47;;;;;;;;;;;;;;;18.16;89.48;99907.41;1729106;83;21331;-82
2023/05/25 01:28:24;;;;;;;18.93;8.07;;;;;;;18.01;89.90;99906.43;1720899;82;20312;-81
2023/05/25 01:31:30;;;;;;;14.73;8.20;;;;;;;17.86;90.75;99912.93;1741010;82;21337;-81
2023/05/25 01:34:38;;;;;;;17.98;9.30;;;;;;;17.90;91.04;99910.55;1743829;82;21301;-81
2023/05/25 01:37:45;;;;;;;21.02;8.90;;;;;;;18.13;89.80;99911.48;1744401;82;21282;-81
2023/05/25 01:40:51;;;;;;;19.17;8.10;;;;;;;17.98;90.06;99906.92;1743963;82;21306;-81
2023/05/25 01:43:57;;;;;;;16.87;9.00;;;;;;;17.93;90.70;99911.47;1744142;82;21302;-82
2023/05/25 01:47:21;;;;;;;15.32;9.23;;;;;;;17.90;90.54;99907.23;1744391;82;21318;-81
2023/05/25 01:50:33;;;;;;;19.73;9.55;;;;;;;17.95;90.10;99912.07;1743222;82;21638;-81
2023/05/25 01:53:52;;;;;;;15.93;9.18;;;;;;;18.46;87.90;99911.52;1744246;82;21404;-81
2023/05/25 01:56:57;;;;;;;16.62;8.70;;;;;;;18.08;89.61;99908.58;1743363;82;21353;-81
2023/05/25 02:00:04;;;;;;;21.57;9.05;;;;;;;18.81;86.42;99907.97;1742768;82;21318;-81
2023/05/25 02:03:12;;;;;;;20.68;9.33;;;;;;;17.84;90.90;99910.95;1744249;82;21278;-81
2023/05/25 02:06:18;;;;;;;15.88;9.33;;;;;;;17.45;93.05;99906.72;1743038;82;21278;-81
2023/05/25 02:09:25;;;;;;;17.80;8.43;;;;;;;17.53;92.96;99914.16;1742935;82;21373;-81
2023/05/25 02:12:30;;;;;;;16.75;9.38;;;;;;;18.02;90.97;99917.83;1744206;82;21945;-81
2023/05/25 02:15:38;;;;;;;14.85;9.13;;;;;;;18.18;89.71;99914.09;1743071;82;22290;-80
2023/05/25 02:18:45;;;;;;;16.87;8.10;;;;;;;18.26;89.40;99920.13;1744285;82;21937;-82
2023/05/25 02:21:51;;;;;;;20.55;9.53;;;;;;;18.34;88.66;99921.16;1744390;82;21286;-81
2023/05/25 02:24:57;;;;;;;15.53;9.03;;;;;;;17.21;93.05;99923.69;1743514;82;21310;-81
2023/05/25 02:28:04;;;;;;;17.00;8.08;;;;;;;17.35;93.00;99924.69;1744278;82;21306;-82
2023/05/25 02:31:10;;;;;;;20.17;8.95;;;;;;;16.97;97.30;99929.02;1748481;82;21309;-82
2023/05/25 02:34:16;;;;;;;19.23;10.13;;;;;;;17.30;97.92;99927.84;1748241;82;21906;-82
2023/05/25 02:37:22;;;;;;;20.23;10.32;;;;;;;17.58;95.80;99936.44;1748531;82;21266;-82
2023/05/25 02:40:27;;;;;;;17.98;9.73;;;;;;;17.69;95.57;99945.03;1747457;82;21321;-82
2023/05/25 02:43:32;;;;;;;19.23;9.43;;;;;;;17.73;95.74;99944.88;1748590;82;21284;-82
2023/05/25 02:46:38;;;;;;;22.55;9.45;;;;;;;17.90;95.89;99940.44;1747370;82;21841;-83
2023/05/25 02:49:44;;;;;;;19.17;8.83;;;;;;;18.20;95.24;99945.97;1747230;82;21330;-82
2023/05/25 02:52:50;;;;;;;16.45;8.58;;;;;;;18.45;94.62;99940.84;1747258;82;21326;-82
2023/05/25 02:55:56;;;;;;;16.30;9.05;;;;;;;18.89;92.17;99943.09;1748050;82;21342;-82
2023/05/25 02:59:03;;;;;;;18.25;9.68;;;;;;;18.87;91.07;99948.59;1748342;82;21868;-82
2023/05/25 03:02:09;;;;;;;16.02;8.80;;;;;;;19.12;89.79;99953.90;1748705;82;21274;-82
2023/05/25 03:05:08;;;;;;;;;;;;;;;18.97;89.95;99950.77;1750009;82;21322;-82
2023/05/25 03:08:14;;;;;;;16.35;8.75;;;;;;;19.02;89.63;99957.27;1747081;82;20316;-82
2023/05/25 03:11:22;;;;;;;17.67;9.13;;;;;;;19.19;88.49;99951.84;1748439;82;21282;-82
2023/05/25 03:14:28;;;;;;;15.85;8.13;;;;;;;19.34;88.26;99955.53;1747861;82;21352;-82
2023/05/25 03:17:35;;;;;;;16.45;7.92;;;;;;;19.55;87.37;99953.50;1748568;82;21286;-82
2023/05/25 03:20:40;;;;;;;14.00;8.55;;;;;;;19.51;87.44;99950.91;1747259;82;21325;-81
2023/05/25 03:23:47;;;;;;;15.88;7.87;;;;;;;20.03;85.92;99967.58;1748515;82;21302;-82
2023/05/25 03:26:53;;;;;;;18.92;8.70;;;;;;;19.98;85.92;99960.53;1747661;82;21334;-82
2023/05/25 03:29:59;;;;;;;18.70;8.55;;;;;;;20.25;85.11;99958.02;1747104;82;21330;-81
2023/05/25 03:33:05;;;;;;;15.75;8.15;;;;;;;20.48;84.84;99964.05;1744346;82;21903;-81
2023/05/25 03:36:16;;;;;;;22.00;9.20;;;;;;;20.89;83.61;99964.22;1742924;82;21306;-81
2023/05/25 03:39:22;;;;;;;19.25;9.08;;;;;;;21.28;81.68;99956.48;1743836;82;21306;-81
2023/05/25 03:42:28;;;;;;;20.40;8.53;;;;;;;21.42;80.98;99962.00;1744228;82;21371;-81
2023/05/25 03:45:33;;;;;;;21.57;9.63;;;;;;;21.47;79.90;99959.84;1743129;82;21345;-81
2023/05/25 03:48:39;;;;;;;27.07;10.85;;;;;;;21.73;79.30;99955.45;1744352;82;21413;-81
2023/05/25 03:51:47;;;;;;;25.17;11.43;;;;;;;21.74;78.94;99946.88;1744478;82;21839;-81
2023/05/25 03:54:54;;;;;;;22.00;11.63;;;;;;;21.90;78.28;99950.67;1744528;82;21365;-81
2023/05/25 03:58:02;;;;;;;29.12;11.83;;;;;;;22.08;77.31;99942.55;1743368;82;21314;-83
2023/05/25 04:01:09;;;;;;;20.88;11.78;;;;;;;22.27;76.45;99941.11;1744113;82;21286;-82
2023/05/25 04:04:15;;;;;;;26.25;11.28;;;;;;;22.43;75.90;99944.89;1743974;82;21301;-81
2023/05/25 04:07:22;;;;;;;22.32;11.18;;;;;;;22.43;75.42;99943.50;1743516;82;21286;-82
2023/05/25 04:10:29;;;;;;;30.90;11.65;;;;;;;22.70;73.82;99954.08;1744455;82;21302;-81
2023/05/25 04:13:35;;;;;;;26.37;12.45;;;;;;;22.50;74.47;99955.84;1744434;82;21929;-81
2023/05/25 04:16:41;;;;;;;34.48;11.63;;;;;;;22.44;74.78;99960.50;1744006;82;21353;-81
2023/05/25 04:19:49;;;;;;;32.45;13.05;;;;;;;22.37;74.87;99959.33;1743632;82;21850;-82
2023/05/25 04:22:55;;;;;;;28.67;12.63;;;;;;;22.37;74.51;99962.11;1743026;82;21302;-82
2023/05/25 04:25:56;;;;;;;33.25;13.40;;;;;;;22.35;74.44;99965.73;1744381;82;21271;-82
2023/05/25 04:29:05;;;;;;;24.02;12.43;;;;;;;22.44;74.52;99963.28;1743633;82;21278;-82
2023/05/25 04:32:17;;;;;;;26.05;11.63;;;;;;;22.35;75.01;99969.91;1701084;82;21294;-82
2023/05/25 04:35:27;;;;;;;26.82;11.85;;;;;;;22.47;75.17;99972.52;1738263;82;21318;-82
2023/05/25 04:38:33;;;;;;;20.77;8.83;;;;;;;22.79;75.03;99976.75;1748049;82;21941;-82
2023/05/25 04:41:38;;;;;;;19.73;10.30;;;;;;;23.19;74.40;99970.67;1749422;82;22235;-82
2023/05/25 04:44:47;;;;;;;19.73;8.98;;;;;;;23.42;73.86;99968.05;1748429;82;21286;-81
2023/05/25 04:47:55;;;;;;;16.90;8.55;;;;;;;23.56;73.29;99972.60;1748570;82;21281;-81
2023/05/25 04:51:03;;;;;;;21.00;8.30;;;;;;;23.84;71.68;99981.16;1749391;82;21361;-82
2023/05/25 04:54:08;;;;;;;21.30;8.20;;;;;;;23.79;71.19;99978.91;1744570;82;21297;-82
2023/05/25 04:57:14;;;;;;;19.77;7.95;;;;;;;23.90;70.98;99979.22;1734397;81;21867;-81
2023/05/25 05:00:21;;;;;;;19.80;9.13;;;;;;;24.14;70.53;99976.28;1733746;81;21263;-81
2023/05/25 05:03:26;;;;;;;21.65;7.83;;;;;;;24.45;69.29;99981.41;1731710;81;21309;-82
2023/05/25 05:06:32;;;;;;;16.60;7.65;;;;;;;24.64;68.48;99980.89;1729918;82;21314;-81
2023/05/25 05:09:40;;;;;;;15.65;7.75;;;;;;;24.84;67.83;99988.46;1729180;81;22243;-81
2023/05/25 05:12:47;;;;;;;20.23;8.75;;;;;;;24.93;66.40;99986.80;1729570;82;21291;-81
2023/05/25 05:15:56;;;;;;;15.63;6.78;;;;;;;24.64;66.52;99999.91;1731856;82;21306;-82
2023/05/25 05:19:02;;;;;;;19.45;6.92;;;;;;;24.70;66.25;99997.42;1719876;82;21350;-81
2023/05/25 05:22:08;;;;;;;17.73;6.95;;;;;;;24.49;66.47;100004.07;1716895;82;21270;-81
2023/05/25 05:25:14;;;;;;;17.73;6.92;;;;;;;24.35;67.10;100001.48;1731306;81;21259;-82
2023/05/25 05:28:20;;;;;;;15.70;6.72;;;;;;;24.19;67.60;100002.84;1730841;81;21829;-82
2023/05/25 05:31:28;;;;;;;15.72;6.37;;;;;;;24.22;67.44;100000.88;1724382;82;21275;-83
2023/05/25 05:34:34;;;;;;;16.12;6.80;;;;;;;24.50;66.13;99995.13;1729042;80;21338;-82
2023/05/25 05:37:45;;;;;;;19.32;7.90;;;;;;;24.54;65.79;100001.84;1721350;81;21304;-81
2023/05/25 05:40:53;;;;;;;16.82;6.83;;;;;;;24.75;65.41;99999.39;1728694;81;21303;-80
2023/05/25 05:44:00;;;;;;;22.30;7.10;;;;;;;24.86;65.43;100001.06;1725565;81;21951;-81
2023/05/25 05:47:05;;;;;;;19.05;7.35;;;;;;;25.04;64.86;99999.69;1741234;80;21342;-82
2023/05/25 05:50:12;;;;;;;26.42;7.53;;;;;;;25.16;63.68;100001.66;1708853;82;21307;-82
2023/05/25 05:53:17;;;;;;;14.85;7.05;;;;;;;25.45;62.42;100002.47;1718223;82;21919;-82
2023/05/25 05:56:29;;;;;;;21.40;6.67;;;;;;;25.74;61.81;99999.35;1741851;80;22164;-83
2023/05/25 05:59:34;;;;;;;21.90;7.53;;;;;;;25.93;60.80;99998.77;1716184;82;22564;-81
2023/05/25 06:02:39;;;;;;;15.65;6.30;;;;;;;26.08;59.27;99995.06;1743412;80;21570;-81
2023/05/25 06:05:47;;;;;;;27.10;6.12;;;;;;;26.25;58.67;99991.32;1708348;82;22356;-81
2023/05/25 06:08:53;;;;;;;19.77;5.30;;;;;;;26.27;58.22;99997.50;1709112;82;22288;-82
2023/05/25 06:11:57;;;;;;;16.05;5.60;;;;;;;26.59;56.33;99991.47;1686273;81;164418;-80
2023/05/25 06:15:03;;;;;;;20.48;6.10;;;;;;;26.78;56.82;99993.02;1711229;82;21274;-81
2023/05/25 06:18:11;;;;;;;20.77;5.97;;;;;;;27.00;56.08;99995.36;1684972;83;21335;-82
2023/05/25 06:21:17;;;;;;;11.85;5.25;;;;;;;27.42;53.11;99991.93;1710047;82;21327;-82
2023/05/25 06:24:22;;;;;;;16.57;5.75;;;;;;;27.44;52.74;99995.87;1689889;83;21891;-83
2023/05/25 06:27:28;;;;;;;14.85;5.95;;;;;;;27.99;52.07;99995.00;1675745;83;74553;-81
2023/05/25 06:30:36;;;;;;;14.20;5.25;;;;;;;28.40;50.93;99995.91;1678006;84;21309;-81
2023/05/25 06:33:42;;;;;;;16.27;5.80;;;;;;;28.48;49.41;99999.47;1658200;84;21299;-81
2023/05/25 06:36:48;;;;;;;19.57;5.87;;;;;;;28.46;49.66;99998.91;1655276;85;21221;-82
2023/05/25 06:39:53;;;;;;;8.05;4.78;;;;;;;28.32;50.49;99999.36;1657137;85;21720;-83
2023/05/25 06:42:58;;;;;;;11.53;4.67;;;;;;;28.24;49.97;100005.94;1655258;85;21304;-81
2023/05/25 06:50:17;;;;;;;12.82;4.80;;;;;;;27.76;50.46;99998.10;1645732;85;21763;-80
2023/05/25 06:53:21;;;;;;;15.68;5.58;;;;;;;27.95;50.30;100003.78;1650704;85;21308;-81
2023/05/25 06:56:27;;;;;;;16.55;5.10;;;;;;;27.99;50.35;100003.42;1641350;86;21340;-82
2023/05/25 06:59:32;;;;;;;15.55;5.72;;;;;;;27.79;50.29;100002.27;1649932;84;21189;-82
2023/05/25 07:02:37;;;;;;;13.45;5.50;;;;;;;27.54;50.35;100001.38;1638533;86;21320;-83
2023/05/25 07:05:43;;;;;;;19.02;5.95;;;;;;;27.76;50.49;100003.72;1655810;85;21323;-82
2023/05/25 07:08:50;;;;;;;12.33;5.30;;;;;;;27.83;50.30;100001.95;1610902;87;21610;-82
2023/05/25 07:11:56;;;;;;;14.90;5.33;;;;;;;27.83;50.05;99999.97;1651274;84;28530;-81
2023/05/25 07:14:55;;;;;;;14.03;5.23;;;;;;;27.59;50.76;100003.30;1659435;83;21697;-83
2023/05/25 07:18:01;;;;;;;13.68;5.22;;;;;;;27.55;50.19;100014.28;1656164;85;21290;-82
2023/05/25 07:21:05;;;;;;;20.57;5.53;;;;;;;27.41;50.71;100010.48;1662041;85;21307;-83
2023/05/25 07:24:11;;;;;;;13.35;5.47;;;;;;;26.46;53.20;100008.92;1653854;85;21317;-83
2023/05/25 07:27:18;;;;;;;18.98;5.05;;;;;;;26.40;54.34;100012.86;1655095;85;21291;-83
2023/05/25 07:30:26;;;;;;;10.90;5.33;;;;;;;26.58;53.73;100015.00;1663095;83;21299;-80
2023/05/25 07:33:31;;;;;;;13.75;5.67;;;;;;;26.79;53.63;100013.50;1644453;86;21289;-82
2023/05/25 07:36:38;;;;;;;18.23;5.92;;;;;;;26.76;53.34;100012.93;1705993;83;21337;-81
2023/05/25 07:39:43;;;;;;;14.28;5.47;;;;;;;26.72;53.55;100011.86;1704337;82;21286;-82
2023/05/25 07:42:50;;;;;;;21.82;7.15;;;;;;;26.89;53.47;100016.23;1706697;83;21274;-81
2023/05/25 07:45:55;;;;;;;17.65;6.05;;;;;;;27.14;53.24;100014.64;1710865;83;21252;-82
2023/05/25 07:49:02;;;;;;;14.35;5.78;;;;;;;27.14;53.78;100009.03;1711208;82;21275;-82
2023/05/25 07:52:06;;;;;;;17.75;6.03;;;;;;;27.39;52.66;100005.18;1707139;83;21298;-82
2023/05/25 07:55:17;;;;;;;13.70;5.37;;;;;;;27.39;51.68;100003.77;1710161;83;21293;-82
2023/05/25 07:58:23;;;;;;;15.30;5.05;;;;;;;27.10;51.83;100004.30;1706005;82;21932;-82
2023/05/25 08:01:29;;;;;;;16.07;6.05;;;;;;;27.03;51.96;99996.19;1710466;83;21318;-82
2023/05/25 08:04:38;;;;;;;21.33;5.22;;;;;;;26.96;52.30;99995.13;1708305;81;21281;-82
2023/05/25 08:07:43;;;;;;;25.40;7.28;;;;;;;26.82;52.51;99994.66;1711789;83;21909;-81
2023/05/25 08:10:51;;;;;;;12.30;4.72;;;;;;;26.80;52.42;100006.75;1704821;82;66468;-81
2023/05/25 08:13:57;;;;;;;14.93;6.28;;;;;;;26.65;52.65;99995.91;1706979;83;21290;-82
2023/05/25 08:17:03;;;;;;;12.13;5.28;;;;;;;26.36;53.40;99984.55;1703543;82;21365;-83
2023/05/25 08:20:09;;;;;;;16.35;6.40;;;;;;;26.14;53.96;99990.54;1703240;82;21595;-83
2023/05/25 08:23:14;;;;;;;13.93;5.53;;;;;;;26.05;54.34;99992.26;1705747;83;21407;-81
2023/05/25 08:26:19;;;;;;;14.15;6.42;;;;;;;26.00;54.94;99993.69;1704336;82;21217;-84
2023/05/25 08:29:25;;;;;;;13.90;5.97;;;;;;;26.05;54.21;99992.26;1704818;82;21855;-83
2023/05/25 08:32:31;;;;;;;18.02;6.20;;;;;;;26.03;54.55;99987.52;1703118;83;21321;-83
2023/05/25 08:35:42;;;;;;;42.48;14.10;;;;;;;25.87;55.13;99993.72;1670742;83;22001;-82
2023/05/25 08:38:45;;;;;;;32.45;14.63;;;;;;;25.67;57.29;99995.16;1661824;84;21331;-83
2023/05/25 08:41:53;;;;;;;68.52;19.23;;;;;;;25.67;59.20;99996.55;1666374;84;21945;-83
2023/05/25 08:45:01;;;;;;;51.00;18.12;;;;;;;25.51;61.14;99998.56;1668529;84;21322;-81
2023/05/25 08:48:11;;;;;;;47.08;17.50;;;;;;;25.39;62.69;100012.84;1669669;84;21955;-84
2023/05/25 08:51:18;;;;;;;51.73;20.57;;;;;;;25.55;64.57;100010.88;1673054;84;21911;-83
2023/05/25 08:54:26;;;;;;;52.30;21.27;;;;;;;25.48;65.91;100019.55;1674643;84;21279;-83
2023/05/25 08:57:56;;;;;;;51.15;20.85;;;;;;;25.52;66.45;100028.23;1669865;84;21431;-81
2023/05/25 09:01:06;;;;;;;49.30;19.62;;;;;;;25.32;66.71;100024.06;1665197;84;21335;-82
2023/05/25 09:04:13;;;;;;;54.38;20.50;;;;;;;25.31;66.72;100022.36;1655541;84;21290;-83
2023/05/25 09:07:19;;;;;;;35.10;16.48;;;;;;;25.33;67.43;100013.14;1654058;86;21319;-83
2023/05/25 09:10:26;;;;;;;28.42;14.03;;;;;;;25.31;67.14;100002.77;1658338;84;21408;-82
2023/05/25 09:13:33;;;;;;;32.40;13.90;;;;;;;25.31;66.55;100003.60;1657692;84;21331;-81
2023/05/25 09:16:39;;;;;;;27.85;12.40;;;;;;;25.18;67.06;99995.23;1662314;84;21872;-82
2023/05/25 09:19:45;;;;;;;25.23;12.33;;;;;;;25.57;64.52;100003.02;1660388;86;21296;-82
2023/05/25 09:22:55;;;;;;;29.18;11.45;;;;;;;25.12;64.76;100015.09;1660179;85;21367;-82
2023/05/25 09:37:30;;;;;;;17.10;7.83;;;;;;;24.94;66.20;99987.09;1804781;76;28744;-82
2023/05/25 09:40:41;;;;;;;18.40;6.90;;;;;;;25.09;65.74;99980.13;1774912;79;21322;-83
2023/05/25 09:43:47;;;;;;;22.10;7.60;;;;;;;25.01;65.92;99975.05;1779037;79;21946;-82
2023/05/25 09:46:53;;;;;;;17.73;6.80;;;;;;;25.03;65.66;99978.42;1783594;79;21313;-81
2023/05/25 09:50:00;;;;;;;14.28;6.80;;;;;;;24.98;65.13;99989.59;1775507;79;21650;-81
2023/05/25 09:53:07;;;;;;;16.73;6.30;;;;;;;24.86;65.59;99996.03;1770586;79;21271;-83
2023/05/25 09:56:13;;;;;;;13.83;5.97;;;;;;;24.99;64.94;100004.72;1769570;79;21279;-80
2023/05/25 09:59:20;;;;;;;14.33;5.90;;;;;;;24.70;65.17;100002.14;1774135;80;21858;-80
2023/05/25 10:02:26;;;;;;;12.53;5.22;;;;;;;24.57;65.76;100004.94;1768561;79;21331;-82
2023/05/25 10:05:31;;;;;;;14.53;6.08;;;;;;;24.34;66.60;100001.20;1752753;79;21299;-80
2023/05/25 10:08:37;;;;;;;14.43;6.28;;;;;;;24.59;66.46;99998.50;1772266;79;21283;-80
2023/05/25 10:11:43;;;;;;;13.50;6.83;;;;;;;24.52;67.15;99999.34;1779978;79;21306;-80
2023/05/25 10:14:49;;;;;;;16.20;7.90;;;;;;;24.53;67.76;99995.98;1768696;79;21288;-81
2023/05/25 10:18:01;;;;;;;18.17;7.15;;;;;;;24.55;68.18;99995.13;1771032;79;21271;-81
2023/05/25 10:21:10;;;;;;;22.67;7.10;;;;;;;24.69;67.69;99983.70;1772477;79;21660;-81
2023/05/25 10:24:24;;;;;;;14.40;6.35;;;;;;;24.72;68.05;99984.55;1774845;80;21279;-82
2023/05/25 10:27:31;;;;;;;17.67;8.35;;;;;;;24.71;68.78;99994.90;1775103;80;21328;-83
2023/05/25 10:30:36;;;;;;;22.40;8.15;;;;;;;24.81;69.21;99994.63;1778703;79;21273;-83
2023/05/25 10:33:43;;;;;;;19.10;8.73;;;;;;;24.93;69.24;99996.58;1758591;80;21285;-81
2023/05/25 10:36:50;;;;;;;16.17;8.10;;;;;;;24.83;69.73;99997.98;1737071;80;21848;-82
2023/05/25 10:39:57;;;;;;;18.45;8.73;;;;;;;25.03;67.95;99999.94;1764473;79;21283;-81
2023/05/25 10:43:03;;;;;;;19.40;8.63;;;;;;;25.11;66.89;99992.43;1765929;80;22220;-80
2023/05/25 10:46:13;;;;;;;18.60;8.43;;;;;;;25.07;66.85;99991.27;1765118;80;21707;-81
2023/05/25 10:49:19;;;;;;;23.55;10.30;;;;;;;25.02;66.95;99986.52;1769889;79;21316;-82
2023/05/25 10:52:26;;;;;;;27.55;10.63;;;;;;;25.05;66.76;99985.97;1762021;78;21347;-83
2023/05/25 10:55:31;;;;;;;26.07;10.60;;;;;;;24.90;67.54;99979.81;1760420;79;21284;-82
2023/05/25 10:58:38;;;;;;;27.70;10.20;;;;;;;24.94;67.99;99970.31;1769202;80;21279;-82
2023/05/25 11:01:56;;;;;;;22.15;9.60;;;;;;;25.11;67.83;99968.08;1760744;80;21338;-83
2023/05/25 11:05:37;;;;;;;21.17;9.75;;;;;;;25.45;65.94;99961.34;1759311;80;21314;-82
2023/05/25 11:09:05;;;;;;;18.80;8.45;;;;;;;25.44;66.09;99963.84;1739445;80;21849;-82
2023/05/25 11:12:12;;;;;;;20.15;9.13;;;;;;;25.66;65.25;99948.11;1757460;79;21307;-80
2023/05/25 11:15:21;;;;;;;26.07;10.05;;;;;;;25.72;66.02;99940.53;1766219;79;21819;-80
2023/05/25 11:18:27;;;;;;;19.37;9.50;;;;;;;26.04;64.78;99928.11;1758955;80;21261;-80
2023/05/25 11:21:49;;;;;;;20.32;9.18;;;;;;;26.32;64.34;99932.98;1726637;82;21320;-80
2023/05/25 11:24:59;;;;;;;28.38;10.70;;;;;;;26.51;63.85;99944.39;1724405;82;21308;-82
2023/05/25 11:28:13;;;;;;;19.62;8.33;;;;;;;26.29;63.75;99949.54;1724990;81;21944;-82
2023/05/25 11:31:22;;;;;;;19.48;8.40;;;;;;;26.53;63.49;99963.16;1730257;81;21335;-82
2023/05/25 11:34:29;;;;;;;19.17;8.43;;;;;;;26.69;62.60;99973.73;1715531;81;21903;-83
2023/05/25 11:37:40;;;;;;;20.97;8.10;;;;;;;26.66;62.26;99980.75;1709581;82;21880;-83
2023/05/25 11:40:41;;;;;;;20.85;7.95;;;;;;;26.94;60.87;99989.52;1706607;83;21154;-83
2023/05/25 11:43:48;;;;;;;18.95;7.03;;;;;;;26.73;61.51;99993.89;1732471;82;21881;-83
2023/05/25 11:46:56;;;;;;;17.75;7.85;;;;;;;26.70;60.65;99993.06;1732660;82;21292;-83
2023/05/25 11:50:05;;;;;;;26.62;8.05;;;;;;;26.70;60.81;100000.64;1717085;83;21340;-83
2023/05/25 11:53:13;;;;;;;18.80;8.50;;;;;;;26.56;59.70;100004.66;1719715;82;21265;-83
2023/05/25 11:56:21;;;;;;;22.13;10.63;;;;;;;26.59;60.25;100001.28;1713162;82;21308;-83
2023/05/25 11:59:29;;;;;;;22.48;9.50;;;;;;;26.71;60.07;99996.70;1722698;81;21288;-83
2023/05/25 12:02:37;;;;;;;25.12;9.88;;;;;;;26.87;59.78;99990.44;1718705;81;21280;-83
2023/05/25 12:05:46;;;;;;;23.20;9.15;;;;;;;26.91;58.45;99990.09;1718873;82;21354;-83
2023/05/25 12:08:51;;;;;;;;;;;;;;;26.99;58.24;99983.87;1727870;83;21748;-82
2023/05/25 12:11:57;;;;;;;22.82;9.05;;;;;;;27.11;57.94;99970.34;1711123;83;20270;-82
2023/05/25 12:15:03;;;;;;;17.20;8.70;;;;;;;27.10;59.04;99963.06;1723011;83;21296;-82
2023/05/25 12:18:07;;;;;;;23.90;9.53;;;;;;;27.17;57.06;99950.91;1716823;82;21290;-83
2023/05/25 12:21:08;;;;;;;21.45;9.18;;;;;;;27.07;56.88;99950.14;1691695;83;21317;-84
2023/05/25 12:24:08;;;;;;;21.23;9.15;;;;;;;27.15;57.08;99944.77;1721803;83;21288;-83
2023/05/25 12:27:03;;;;;;;19.20;7.83;;;;;;;27.36;55.86;99943.14;1719014;81;21278;-83
2023/05/25 12:30:10;;;;;;;17.67;7.80;;;;;;;27.36;54.90;99944.55;1718627;82;21289;-82
2023/05/25 12:33:18;;;;;;;17.00;7.78;;;;;;;27.44;54.49;99938.30;1720093;82;21293;-80
2023/05/25 12:36:18;;;;;;;21.97;8.33;;;;;;;27.31;55.58;99938.98;1694756;82;21339;-81
2023/05/25 12:39:38;;;;;;;30.57;8.48;;;;;;;27.32;54.72;99936.45;1712488;82;21320;-81
2023/05/25 12:42:46;;;;;;;21.82;8.20;;;;;;;27.40;54.53;99921.77;1729871;82;21264;-82
2023/05/25 12:45:53;;;;;;;19.30;8.33;;;;;;;27.49;54.73;99919.41;1739474;82;21887;-83
2023/05/25 12:48:57;;;;;;;24.20;8.33;;;;;;;27.45;54.80;99918.90;1745322;82;21862;-83
2023/05/25 12:52:07;;;;;;;20.30;8.40;;;;;;;27.45;55.50;99923.11;1744888;82;21804;-81
2023/05/25 12:55:40;;;;;;;22.37;6.53;;;;;;;27.61;55.36;99914.77;1745894;82;21347;-80
2023/05/25 12:58:47;;;;;;;13.28;5.72;;;;;;;27.66;56.03;99914.70;1743115;80;21922;-80
2023/05/25 13:01:53;;;;;;;10.85;5.37;;;;;;;27.16;57.15;99922.57;1729678;81;21342;-82
2023/05/25 13:05:00;;;;;;;13.50;6.00;;;;;;;27.07;57.97;99918.70;1731422;81;21911;-83
2023/05/25 13:08:06;;;;;;;20.08;6.35;;;;;;;27.11;58.42;99904.38;1730941;82;21337;-83
2023/05/25 13:11:13;;;;;;;14.35;7.37;;;;;;;27.28;58.23;99906.72;1731943;81;21338;-83
2023/05/25 13:14:20;;;;;;;22.15;7.67;;;;;;;27.13;58.09;99904.91;1721922;81;21898;-82
2023/05/25 13:17:27;;;;;;;18.77;7.83;;;;;;;27.35;56.88;99905.81;1706978;82;21330;-83
2023/05/25 13:20:33;;;;;;;28.20;8.33;;;;;;;27.38;56.50;99905.77;1708071;82;21300;-83
2023/05/25 13:23:40;;;;;;;17.75;8.33;;;;;;;27.53;56.78;99904.22;1708298;84;21358;-83
2023/05/25 13:26:48;;;;;;;25.43;7.85;;;;;;;27.63;56.58;99908.30;1707958;84;21343;-83
2023/05/25 13:29:54;;;;;;;18.65;8.00;;;;;;;27.70;55.77;99911.57;1707674;84;21355;-83
2023/05/25 13:32:59;;;;;;;18.05;8.40;;;;;;;27.80;55.38;99906.99;1708644;84;21299;-82
2023/05/25 13:36:07;;;;;;;22.98;8.78;;;;;;;27.62;56.31;99915.60;1708380;84;21322;-83
2023/05/25 13:39:13;;;;;;;18.65;7.65;;;;;;;27.73;56.19;99916.63;1708152;84;21342;-82
2023/05/25 13:42:18;;;;;;;22.77;8.33;;;;;;;27.98;55.33;99923.89;1707328;84;21319;-82
2023/05/25 13:45:24;;;;;;;22.93;8.63;;;;;;;28.16;54.25;99922.25;1707860;84;21320;-84
2023/05/25 13:48:30;;;;;;;20.70;8.28;;;;;;;28.06;54.44;99922.39;1708739;84;21339;-82
2023/05/25 13:51:37;;;;;;;21.17;9.03;;;;;;;28.21;54.20;99927.80;1709358;84;21363;-83
2023/05/25 13:54:43;;;;;;;20.25;7.67;;;;;;;28.26;53.15;99933.34;1709429;84;21319;-82
2023/05/25 13:57:50;;;;;;;20.62;8.10;;;;;;;28.36;53.64;99939.43;1710119;84;21287;-83
2023/05/25 14:00:55;;;;;;;18.15;8.43;;;;;;;28.19;54.02;99937.12;1708726;84;21326;-83
2023/05/25 14:04:01;;;;;;;23.30;7.87;;;;;;;27.98;54.15;99935.14;1709699;84;21291;-83
2023/05/25 14:07:09;;;;;;;17.32;7.62;;;;;;;28.14;54.38;99935.79;1708911;84;21303;-82
2023/05/25 14:10:16;;;;;;;18.87;7.75;;;;;;;28.32;53.05;99932.70;1708922;84;21366;-83
2023/05/25 14:13:15;;;;;;;17.48;7.33;;;;;;;28.11;53.11;99920.92;1709856;84;21319;-82
2023/05/25 14:16:20;;;;;;;17.65;7.80;;;;;;;28.27;53.04;99922.36;1709529;84;21876;-83
2023/05/25 14:19:25;;;;;;;15.15;7.42;;;;;;;28.27;52.64;99920.95;1708523;84;21295;-83
2023/05/25 14:22:31;;;;;;;16.70;7.45;;;;;;;28.28;52.48;99929.69;1708763;84;21371;-81
2023/05/25 14:25:37;;;;;;;15.98;7.35;;;;;;;28.13;52.09;99922.02;1709161;82;21895;-81
2023/05/25 14:28:42;;;;;;;21.02;8.90;;;;;;;28.07;52.30;99922.66;1709939;84;21288;-81
2023/05/25 14:31:49;;;;;;;19.00;7.00;;;;;;;27.70;53.88;99924.78;1709156;84;21319;-81
2023/05/25 14:34:55;;;;;;;14.60;7.87;;;;;;;27.79;54.56;99922.19;1709765;84;21347;-82
2023/05/25 14:38:01;;;;;;;16.62;7.20;;;;;;;27.85;54.20;99918.17;1709987;84;21283;-83
2023/05/25 14:41:07;;;;;;;16.42;7.60;;;;;;;27.53;53.99;99907.59;1709102;84;21340;-81
2023/05/25 14:44:13;;;;;;;14.43;7.12;;;;;;;27.58;53.84;99908.94;1707406;84;21320;-81